sensor_id;sensor_type;location;lat;lon;timestamp;P1;durP1;ratioP1;P2;durP2;ratioP2
23617;SDS011;18207;32.078;34.818;2024-02-16T00:00:14;1.45;;;1.35;;
23617;SDS011;18207;32.078;34.818;2024-02-16T00:02:44;1.10;;;1.10;;
23617;SDS011;18207;32.078;34.818;2024-02-16T00:05:16;1.08;;;1.08;;
23617;SDS011;18207;32.078;34.818;2024-02-16T00:07:46;1.42;;;1.25;;
23617;SDS011;18207;32.078;34.818;2024-02-16T00:10:16;1.05;;;1.05;;
23617;SDS011;18207;32.078;34.818;2024-02-16T00:12:47;1.40;;;1.30;;
23617;SDS011;18207;32.078;34.818;2024-02-16T00:15:17;1.17;;;1.08;;
23617;SDS011;18207;32.078;34.818;2024-02-16T00:17:47;1.83;;;1.35;;
23617;SDS011;18207;32.078;34.818;2024-02-16T00:20:18;1.05;;;1.05;;
23617;SDS011;18207;32.078;34.818;2024-02-16T00:22:49;0.88;;;0.88;;
23617;SDS011;18207;32.078;34.818;2024-02-16T00:25:19;1.30;;;1.10;;
23617;SDS011;18207;32.078;34.818;2024-02-16T00:27:49;1.00;;;1.00;;
23617;SDS011;18207;32.078;34.818;2024-02-16T00:30:20;0.93;;;0.93;;
23617;SDS011;18207;32.078;34.818;2024-02-16T00:32:50;1.20;;;1.10;;
23617;SDS011;18207;32.078;34.818;2024-02-16T00:35:22;1.33;;;1.23;;
23617;SDS011;18207;32.078;34.818;2024-02-16T00:37:52;1.30;;;1.20;;
23617;SDS011;18207;32.078;34.818;2024-02-16T00:40:22;1.60;;;1.50;;
23617;SDS011;18207;32.078;34.818;2024-02-16T00:42:53;1.48;;;1.38;;
23617;SDS011;18207;32.078;34.818;2024-02-16T00:45:23;1.60;;;1.38;;
23617;SDS011;18207;32.078;34.818;2024-02-16T00:47:54;1.70;;;1.60;;
23617;SDS011;18207;32.078;34.818;2024-02-16T00:50:28;1.83;;;1.70;;
23617;SDS011;18207;32.078;34.818;2024-02-16T00:53:07;2.10;;;1.90;;
23617;SDS011;18207;32.078;34.818;2024-02-16T00:55:37;1.73;;;1.63;;
23617;SDS011;18207;32.078;34.818;2024-02-16T00:58:08;1.83;;;1.40;;
23617;SDS011;18207;32.078;34.818;2024-02-16T01:00:38;2.00;;;1.80;;
23617;SDS011;18207;32.078;34.818;2024-02-16T01:03:08;2.50;;;1.95;;
23617;SDS011;18207;32.078;34.818;2024-02-16T01:05:41;1.90;;;1.73;;
23617;SDS011;18207;32.078;34.818;2024-02-16T01:08:11;2.13;;;1.92;;
23617;SDS011;18207;32.078;34.818;2024-02-16T01:10:40;2.25;;;2.05;;
23617;SDS011;18207;32.078;34.818;2024-02-16T01:13:10;2.10;;;1.90;;
23617;SDS011;18207;32.078;34.818;2024-02-16T01:15:40;2.08;;;1.88;;
23617;SDS011;18207;32.078;34.818;2024-02-16T01:18:10;2.38;;;1.90;;
23617;SDS011;18207;32.078;34.818;2024-02-16T01:20:41;2.85;;;2.00;;
23617;SDS011;18207;32.078;34.818;2024-02-16T01:23:11;2.50;;;1.80;;
23617;SDS011;18207;32.078;34.818;2024-02-16T01:25:41;1.92;;;1.77;;
23617;SDS011;18207;32.078;34.818;2024-02-16T01:28:11;2.20;;;1.90;;
23617;SDS011;18207;32.078;34.818;2024-02-16T01:30:40;2.00;;;1.80;;
23617;SDS011;18207;32.078;34.818;2024-02-16T01:33:10;2.33;;;2.13;;
23617;SDS011;18207;32.078;34.818;2024-02-16T01:35:42;2.03;;;1.83;;
23617;SDS011;18207;32.078;34.818;2024-02-16T01:38:13;2.35;;;2.15;;
23617;SDS011;18207;32.078;34.818;2024-02-16T01:40:42;2.45;;;2.15;;
23617;SDS011;18207;32.078;34.818;2024-02-16T01:43:12;2.15;;;1.95;;
23617;SDS011;18207;32.078;34.818;2024-02-16T01:45:47;2.25;;;2.05;;
23617;SDS011;18207;32.078;34.818;2024-02-16T01:48:17;3.67;;;2.35;;
23617;SDS011;18207;32.078;34.818;2024-02-16T01:50:50;3.03;;;2.30;;
23617;SDS011;18207;32.078;34.818;2024-02-16T01:53:22;2.38;;;2.17;;
23617;SDS011;18207;32.078;34.818;2024-02-16T01:55:52;2.20;;;2.00;;
23617;SDS011;18207;32.078;34.818;2024-02-16T01:58:22;3.00;;;1.90;;
23617;SDS011;18207;32.078;34.818;2024-02-16T02:00:54;2.17;;;1.98;;
23617;SDS011;18207;32.078;34.818;2024-02-16T02:03:23;2.15;;;1.90;;
23617;SDS011;18207;32.078;34.818;2024-02-16T02:05:55;1.90;;;1.80;;
23617;SDS011;18207;32.078;34.818;2024-02-16T02:08:25;2.35;;;1.80;;
23617;SDS011;18207;32.078;34.818;2024-02-16T02:10:55;1.90;;;1.80;;
23617;SDS011;18207;32.078;34.818;2024-02-16T02:13:25;1.67;;;1.58;;
23617;SDS011;18207;32.078;34.818;2024-02-16T02:15:56;2.22;;;1.40;;
23617;SDS011;18207;32.078;34.818;2024-02-16T02:18:28;1.48;;;1.35;;
23617;SDS011;18207;32.078;34.818;2024-02-16T02:20:59;1.30;;;1.20;;
23617;SDS011;18207;32.078;34.818;2024-02-16T02:23:30;2.33;;;1.33;;
23617;SDS011;18207;32.078;34.818;2024-02-16T02:26:01;1.60;;;1.50;;
23617;SDS011;18207;32.078;34.818;2024-02-16T02:28:30;2.50;;;1.27;;
23617;SDS011;18207;32.078;34.818;2024-02-16T02:31:01;1.02;;;1.00;;
23617;SDS011;18207;32.078;34.818;2024-02-16T02:33:31;1.60;;;1.23;;
23617;SDS011;18207;32.078;34.818;2024-02-16T02:36:01;1.33;;;0.93;;
23617;SDS011;18207;32.078;34.818;2024-02-16T02:38:33;0.90;;;0.90;;
23617;SDS011;18207;32.078;34.818;2024-02-16T02:41:13;1.50;;;0.98;;
23617;SDS011;18207;32.078;34.818;2024-02-16T02:43:46;0.70;;;0.70;;
23617;SDS011;18207;32.078;34.818;2024-02-16T02:46:19;0.80;;;0.80;;
23617;SDS011;18207;32.078;34.818;2024-02-16T02:48:54;0.68;;;0.68;;
23617;SDS011;18207;32.078;34.818;2024-02-16T02:51:24;1.00;;;0.80;;
23617;SDS011;18207;32.078;34.818;2024-02-16T02:53:59;0.98;;;0.82;;
23617;SDS011;18207;32.078;34.818;2024-02-16T02:56:29;1.10;;;1.00;;
23617;SDS011;18207;32.078;34.818;2024-02-16T02:58:59;2.95;;;1.23;;
23617;SDS011;18207;32.078;34.818;2024-02-16T03:01:30;1.42;;;1.10;;
23617;SDS011;18207;32.078;34.818;2024-02-16T03:04:00;0.93;;;0.85;;
23617;SDS011;18207;32.078;34.818;2024-02-16T03:06:30;1.25;;;1.15;;
23617;SDS011;18207;32.078;34.818;2024-02-16T03:09:02;1.27;;;0.75;;
23617;SDS011;18207;32.078;34.818;2024-02-16T03:11:34;1.33;;;1.00;;
23617;SDS011;18207;32.078;34.818;2024-02-16T03:14:06;1.27;;;1.02;;
23617;SDS011;18207;32.078;34.818;2024-02-16T03:16:35;1.23;;;1.00;;
23617;SDS011;18207;32.078;34.818;2024-02-16T03:19:06;1.33;;;1.15;;
23617;SDS011;18207;32.078;34.818;2024-02-16T03:21:37;0.88;;;0.88;;
23617;SDS011;18207;32.078;34.818;2024-02-16T03:24:08;2.22;;;0.98;;
23617;SDS011;18207;32.078;34.818;2024-02-16T03:26:38;1.30;;;0.80;;
23617;SDS011;18207;32.078;34.818;2024-02-16T03:29:07;1.13;;;1.00;;
23617;SDS011;18207;32.078;34.818;2024-02-16T03:31:37;1.02;;;1.00;;
23617;SDS011;18207;32.078;34.818;2024-02-16T03:34:07;1.48;;;0.98;;
23617;SDS011;18207;32.078;34.818;2024-02-16T03:36:37;0.70;;;0.65;;
23617;SDS011;18207;32.078;34.818;2024-02-16T03:39:08;1.60;;;1.02;;
23617;SDS011;18207;32.078;34.818;2024-02-16T03:41:38;0.80;;;0.80;;
23617;SDS011;18207;32.078;34.818;2024-02-16T03:44:08;1.35;;;1.00;;
23617;SDS011;18207;32.078;34.818;2024-02-16T03:46:38;2.25;;;1.20;;
23617;SDS011;18207;32.078;34.818;2024-02-16T03:49:07;1.40;;;1.25;;
23617;SDS011;18207;32.078;34.818;2024-02-16T03:51:37;0.80;;;0.80;;
23617;SDS011;18207;32.078;34.818;2024-02-16T03:54:08;1.05;;;1.00;;
23617;SDS011;18207;32.078;34.818;2024-02-16T03:56:38;0.98;;;0.90;;
23617;SDS011;18207;32.078;34.818;2024-02-16T03:59:08;0.95;;;0.85;;
23617;SDS011;18207;32.078;34.818;2024-02-16T04:01:38;1.10;;;1.02;;
23617;SDS011;18207;32.078;34.818;2024-02-16T04:04:09;0.90;;;0.90;;
23617;SDS011;18207;32.078;34.818;2024-02-16T04:06:38;1.92;;;1.15;;
23617;SDS011;18207;32.078;34.818;2024-02-16T04:09:10;1.40;;;1.20;;
23617;SDS011;18207;32.078;34.818;2024-02-16T04:11:40;1.10;;;1.00;;
23617;SDS011;18207;32.078;34.818;2024-02-16T04:14:10;1.20;;;1.20;;
23617;SDS011;18207;32.078;34.818;2024-02-16T04:16:42;1.27;;;1.17;;
23617;SDS011;18207;32.078;34.818;2024-02-16T04:19:12;1.10;;;1.10;;
23617;SDS011;18207;32.078;34.818;2024-02-16T04:21:42;1.30;;;1.20;;
23617;SDS011;18207;32.078;34.818;2024-02-16T04:24:13;1.45;;;1.35;;
23617;SDS011;18207;32.078;34.818;2024-02-16T04:26:43;1.42;;;1.33;;
23617;SDS011;18207;32.078;34.818;2024-02-16T04:29:18;1.60;;;1.50;;
23617;SDS011;18207;32.078;34.818;2024-02-16T04:31:48;1.10;;;1.10;;
23617;SDS011;18207;32.078;34.818;2024-02-16T04:34:18;1.70;;;1.58;;
23617;SDS011;18207;32.078;34.818;2024-02-16T04:36:48;1.40;;;1.30;;
23617;SDS011;18207;32.078;34.818;2024-02-16T04:39:20;1.27;;;1.27;;
23617;SDS011;18207;32.078;34.818;2024-02-16T04:41:50;1.35;;;1.30;;
23617;SDS011;18207;32.078;34.818;2024-02-16T04:44:20;1.38;;;1.25;;
23617;SDS011;18207;32.078;34.818;2024-02-16T04:46:50;1.38;;;1.27;;
23617;SDS011;18207;32.078;34.818;2024-02-16T04:49:20;1.42;;;1.33;;
23617;SDS011;18207;32.078;34.818;2024-02-16T04:51:51;1.10;;;1.10;;
23617;SDS011;18207;32.078;34.818;2024-02-16T04:54:22;1.48;;;1.38;;
23617;SDS011;18207;32.078;34.818;2024-02-16T04:56:53;1.40;;;1.30;;
23617;SDS011;18207;32.078;34.818;2024-02-16T04:59:25;1.55;;;1.40;;
23617;SDS011;18207;32.078;34.818;2024-02-16T05:01:56;1.42;;;1.33;;
23617;SDS011;18207;32.078;34.818;2024-02-16T05:04:28;1.52;;;1.08;;
23617;SDS011;18207;32.078;34.818;2024-02-16T05:06:59;1.33;;;1.23;;
23617;SDS011;18207;32.078;34.818;2024-02-16T05:09:33;1.20;;;1.10;;
23617;SDS011;18207;32.078;34.818;2024-02-16T05:12:03;1.50;;;1.20;;
23617;SDS011;18207;32.078;34.818;2024-02-16T05:14:35;1.50;;;1.40;;
23617;SDS011;18207;32.078;34.818;2024-02-16T05:17:05;1.20;;;1.10;;
23617;SDS011;18207;32.078;34.818;2024-02-16T05:19:35;1.25;;;1.00;;
23617;SDS011;18207;32.078;34.818;2024-02-16T05:22:05;1.88;;;1.17;;
23617;SDS011;18207;32.078;34.818;2024-02-16T05:24:36;1.15;;;1.08;;
23617;SDS011;18207;32.078;34.818;2024-02-16T05:27:09;0.80;;;0.80;;
23617;SDS011;18207;32.078;34.818;2024-02-16T05:29:39;1.10;;;0.93;;
23617;SDS011;18207;32.078;34.818;2024-02-16T05:32:09;1.30;;;1.20;;
23617;SDS011;18207;32.078;34.818;2024-02-16T05:34:41;1.65;;;1.20;;
23617;SDS011;18207;32.078;34.818;2024-02-16T05:37:12;1.52;;;1.13;;
23617;SDS011;18207;32.078;34.818;2024-02-16T05:39:43;1.55;;;0.98;;
23617;SDS011;18207;32.078;34.818;2024-02-16T05:42:24;0.98;;;0.98;;
23617;SDS011;18207;32.078;34.818;2024-02-16T05:44:53;1.50;;;1.13;;
23617;SDS011;18207;32.078;34.818;2024-02-16T05:47:23;1.40;;;1.10;;
23617;SDS011;18207;32.078;34.818;2024-02-16T05:49:54;1.08;;;0.82;;
23617;SDS011;18207;32.078;34.818;2024-02-16T05:52:26;1.15;;;1.05;;
23617;SDS011;18207;32.078;34.818;2024-02-16T05:54:58;0.80;;;0.80;;
23617;SDS011;18207;32.078;34.818;2024-02-16T05:57:28;1.70;;;0.95;;
23617;SDS011;18207;32.078;34.818;2024-02-16T05:59:58;2.45;;;1.10;;
23617;SDS011;18207;32.078;34.818;2024-02-16T06:02:31;1.10;;;0.80;;
23617;SDS011;18207;32.078;34.818;2024-02-16T06:05:01;1.15;;;1.05;;
23617;SDS011;18207;32.078;34.818;2024-02-16T06:07:32;1.50;;;1.10;;
23617;SDS011;18207;32.078;34.818;2024-02-16T06:10:07;1.30;;;0.98;;
23617;SDS011;18207;32.078;34.818;2024-02-16T06:12:39;2.17;;;1.15;;
23617;SDS011;18207;32.078;34.818;2024-02-16T06:15:09;1.40;;;1.10;;
23617;SDS011;18207;32.078;34.818;2024-02-16T06:17:39;1.27;;;1.17;;
23617;SDS011;18207;32.078;34.818;2024-02-16T06:20:09;2.00;;;0.90;;
23617;SDS011;18207;32.078;34.818;2024-02-16T06:22:42;1.55;;;1.38;;
23617;SDS011;18207;32.078;34.818;2024-02-16T06:25:14;1.08;;;0.98;;
23617;SDS011;18207;32.078;34.818;2024-02-16T06:27:44;1.45;;;1.35;;
23617;SDS011;18207;32.078;34.818;2024-02-16T06:30:13;1.88;;;1.33;;
23617;SDS011;18207;32.078;34.818;2024-02-16T06:32:43;1.55;;;1.17;;
23617;SDS011;18207;32.078;34.818;2024-02-16T06:35:14;2.10;;;1.38;;
23617;SDS011;18207;32.078;34.818;2024-02-16T06:37:44;1.48;;;1.38;;
23617;SDS011;18207;32.078;34.818;2024-02-16T06:40:16;2.17;;;1.30;;
23617;SDS011;18207;32.078;34.818;2024-02-16T06:42:46;1.67;;;1.52;;
23617;SDS011;18207;32.078;34.818;2024-02-16T06:45:15;2.60;;;1.40;;
23617;SDS011;18207;32.078;34.818;2024-02-16T06:47:47;2.35;;;1.60;;
23617;SDS011;18207;32.078;34.818;2024-02-16T06:50:18;1.85;;;1.60;;
23617;SDS011;18207;32.078;34.818;2024-02-16T06:52:48;1.42;;;1.33;;
23617;SDS011;18207;32.078;34.818;2024-02-16T06:55:19;1.77;;;1.50;;
23617;SDS011;18207;32.078;34.818;2024-02-16T06:57:49;2.50;;;1.70;;
23617;SDS011;18207;32.078;34.818;2024-02-16T07:00:19;3.15;;;1.38;;
23617;SDS011;18207;32.078;34.818;2024-02-16T07:02:49;1.60;;;1.45;;
23617;SDS011;18207;32.078;34.818;2024-02-16T07:05:19;1.77;;;1.67;;
23617;SDS011;18207;32.078;34.818;2024-02-16T07:07:49;1.90;;;1.73;;
23617;SDS011;18207;32.078;34.818;2024-02-16T07:10:21;1.85;;;1.55;;
23617;SDS011;18207;32.078;34.818;2024-02-16T07:12:54;2.05;;;1.90;;
23617;SDS011;18207;32.078;34.818;2024-02-16T07:15:23;2.63;;;1.80;;
23617;SDS011;18207;32.078;34.818;2024-02-16T07:17:54;2.78;;;1.98;;
23617;SDS011;18207;32.078;34.818;2024-02-16T07:20:24;1.83;;;1.73;;
23617;SDS011;18207;32.078;34.818;2024-02-16T07:22:54;4.32;;;1.73;;
23617;SDS011;18207;32.078;34.818;2024-02-16T07:25:25;2.20;;;1.70;;
23617;SDS011;18207;32.078;34.818;2024-02-16T07:27:55;2.35;;;1.77;;
23617;SDS011;18207;32.078;34.818;2024-02-16T07:30:25;1.52;;;1.42;;
23617;SDS011;18207;32.078;34.818;2024-02-16T07:33:08;1.67;;;1.55;;
23617;SDS011;18207;32.078;34.818;2024-02-16T07:35:38;1.80;;;1.70;;
23617;SDS011;18207;32.078;34.818;2024-02-16T07:38:08;1.67;;;1.58;;
23617;SDS011;18207;32.078;34.818;2024-02-16T07:40:39;2.55;;;1.58;;
23617;SDS011;18207;32.078;34.818;2024-02-16T07:43:12;1.92;;;1.73;;
23617;SDS011;18207;32.078;34.818;2024-02-16T07:45:42;1.45;;;1.35;;
23617;SDS011;18207;32.078;34.818;2024-02-16T07:48:12;1.50;;;1.40;;
23617;SDS011;18207;32.078;34.818;2024-02-16T07:50:43;1.55;;;1.45;;
23617;SDS011;18207;32.078;34.818;2024-02-16T07:53:12;1.60;;;1.50;;
23617;SDS011;18207;32.078;34.818;2024-02-16T07:55:44;2.08;;;1.40;;
23617;SDS011;18207;32.078;34.818;2024-02-16T07:58:14;2.75;;;1.40;;
23617;SDS011;18207;32.078;34.818;2024-02-16T08:00:44;3.15;;;1.40;;
23617;SDS011;18207;32.078;34.818;2024-02-16T08:03:14;1.83;;;1.73;;
23617;SDS011;18207;32.078;34.818;2024-02-16T08:05:44;2.40;;;1.60;;
23617;SDS011;18207;32.078;34.818;2024-02-16T08:08:14;1.90;;;1.80;;
23617;SDS011;18207;32.078;34.818;2024-02-16T08:10:48;1.58;;;1.48;;
23617;SDS011;18207;32.078;34.818;2024-02-16T08:13:18;1.83;;;1.73;;
23617;SDS011;18207;32.078;34.818;2024-02-16T08:15:48;2.25;;;1.98;;
23617;SDS011;18207;32.078;34.818;2024-02-16T08:18:19;4.43;;;1.77;;
23617;SDS011;18207;32.078;34.818;2024-02-16T08:20:49;2.08;;;1.98;;
23617;SDS011;18207;32.078;34.818;2024-02-16T08:23:19;1.70;;;1.60;;
23617;SDS011;18207;32.078;34.818;2024-02-16T08:25:50;1.80;;;1.70;;
23617;SDS011;18207;32.078;34.818;2024-02-16T08:28:20;2.20;;;2.00;;
23617;SDS011;18207;32.078;34.818;2024-02-16T08:30:50;1.90;;;1.80;;
23617;SDS011;18207;32.078;34.818;2024-02-16T08:33:19;1.73;;;1.63;;
23617;SDS011;18207;32.078;34.818;2024-02-16T08:35:50;2.00;;;1.90;;
23617;SDS011;18207;32.078;34.818;2024-02-16T08:38:19;2.28;;;2.08;;
23617;SDS011;18207;32.078;34.818;2024-02-16T08:40:51;1.85;;;1.75;;
23617;SDS011;18207;32.078;34.818;2024-02-16T08:43:21;2.10;;;2.00;;
23617;SDS011;18207;32.078;34.818;2024-02-16T08:45:51;2.00;;;1.90;;
23617;SDS011;18207;32.078;34.818;2024-02-16T08:48:21;1.92;;;1.67;;
23617;SDS011;18207;32.078;34.818;2024-02-16T08:50:52;1.77;;;1.67;;
23617;SDS011;18207;32.078;34.818;2024-02-16T08:53:22;1.80;;;1.70;;
23617;SDS011;18207;32.078;34.818;2024-02-16T08:55:53;1.75;;;1.60;;
23617;SDS011;18207;32.078;34.818;2024-02-16T08:58:24;1.38;;;1.27;;
23617;SDS011;18207;32.078;34.818;2024-02-16T09:00:53;1.42;;;1.33;;
23617;SDS011;18207;32.078;34.818;2024-02-16T09:03:23;1.60;;;1.50;;
23617;SDS011;18207;32.078;34.818;2024-02-16T09:05:54;1.60;;;1.50;;
23617;SDS011;18207;32.078;34.818;2024-02-16T09:08:24;1.85;;;1.75;;
23617;SDS011;18207;32.078;34.818;2024-02-16T09:10:57;1.38;;;1.27;;
23617;SDS011;18207;32.078;34.818;2024-02-16T09:13:27;1.17;;;1.15;;
23617;SDS011;18207;32.078;34.818;2024-02-16T09:15:59;1.38;;;1.27;;
23617;SDS011;18207;32.078;34.818;2024-02-16T09:18:31;1.83;;;1.60;;
23617;SDS011;18207;32.078;34.818;2024-02-16T09:21:01;1.98;;;1.77;;
23617;SDS011;18207;32.078;34.818;2024-02-16T09:23:31;1.20;;;1.20;;
23617;SDS011;18207;32.078;34.818;2024-02-16T09:26:03;1.30;;;1.20;;
23617;SDS011;18207;32.078;34.818;2024-02-16T09:28:33;1.20;;;1.10;;
23617;SDS011;18207;32.078;34.818;2024-02-16T09:31:06;1.85;;;1.58;;
23617;SDS011;18207;32.078;34.818;2024-02-16T09:33:36;1.45;;;1.35;;
23617;SDS011;18207;32.078;34.818;2024-02-16T09:36:09;1.25;;;1.17;;
23617;SDS011;18207;32.078;34.818;2024-02-16T09:38:39;1.65;;;1.55;;
23617;SDS011;18207;32.078;34.818;2024-02-16T09:41:10;1.60;;;1.50;;
23617;SDS011;18207;32.078;34.818;2024-02-16T09:43:43;1.92;;;1.60;;
23617;SDS011;18207;32.078;34.818;2024-02-16T09:46:13;2.45;;;1.90;;
23617;SDS011;18207;32.078;34.818;2024-02-16T09:48:46;1.70;;;1.60;;
23617;SDS011;18207;32.078;34.818;2024-02-16T09:51:20;2.22;;;1.75;;
23617;SDS011;18207;32.078;34.818;2024-02-16T09:53:50;1.60;;;1.50;;
23617;SDS011;18207;32.078;34.818;2024-02-16T09:56:27;1.92;;;1.60;;
23617;SDS011;18207;32.078;34.818;2024-02-16T09:58:57;1.88;;;1.67;;
23617;SDS011;18207;32.078;34.818;2024-02-16T10:01:27;1.70;;;1.40;;
23617;SDS011;18207;32.078;34.818;2024-02-16T10:03:59;1.52;;;1.30;;
23617;SDS011;18207;32.078;34.818;2024-02-16T10:06:45;1.33;;;1.08;;
23617;SDS011;18207;32.078;34.818;2024-02-16T10:09:26;1.05;;;0.93;;
23617;SDS011;18207;32.078;34.818;2024-02-16T10:12:02;1.17;;;1.02;;
23617;SDS011;18207;32.078;34.818;2024-02-16T10:14:35;1.17;;;0.95;;
23617;SDS011;18207;32.078;34.818;2024-02-16T10:17:08;0.85;;;0.85;;
23617;SDS011;18207;32.078;34.818;2024-02-16T10:19:55;1.08;;;1.00;;
23617;SDS011;18207;32.078;34.818;2024-02-16T10:22:25;1.67;;;1.20;;
23617;SDS011;18207;32.078;34.818;2024-02-16T10:24:55;0.93;;;0.82;;
23617;SDS011;18207;32.078;34.818;2024-02-16T10:27:40;1.23;;;0.82;;
23617;SDS011;18207;32.078;34.818;2024-02-16T10:30:10;1.33;;;1.00;;
23617;SDS011;18207;32.078;34.818;2024-02-16T10:32:42;0.93;;;0.90;;
23617;SDS011;18207;32.078;34.818;2024-02-16T10:35:12;1.40;;;1.15;;
23617;SDS011;18207;32.078;34.818;2024-02-16T10:37:48;1.38;;;1.20;;
23617;SDS011;18207;32.078;34.818;2024-02-16T10:40:19;1.20;;;1.10;;
23617;SDS011;18207;32.078;34.818;2024-02-16T10:42:52;1.60;;;1.45;;
23617;SDS011;18207;32.078;34.818;2024-02-16T10:45:23;2.03;;;1.45;;
23617;SDS011;18207;32.078;34.818;2024-02-16T10:47:54;1.35;;;1.25;;
23617;SDS011;18207;32.078;34.818;2024-02-16T10:50:23;1.60;;;1.50;;
23617;SDS011;18207;32.078;34.818;2024-02-16T10:52:54;2.20;;;1.50;;
23617;SDS011;18207;32.078;34.818;2024-02-16T10:55:28;1.73;;;1.58;;
23617;SDS011;18207;32.078;34.818;2024-02-16T10:58:08;1.50;;;1.40;;
23617;SDS011;18207;32.078;34.818;2024-02-16T11:00:49;1.83;;;1.63;;
23617;SDS011;18207;32.078;34.818;2024-02-16T11:03:21;1.42;;;1.30;;
23617;SDS011;18207;32.078;34.818;2024-02-16T11:05:55;1.60;;;1.45;;
23617;SDS011;18207;32.078;34.818;2024-02-16T11:08:27;1.90;;;1.52;;
23617;SDS011;18207;32.078;34.818;2024-02-16T11:10:58;1.92;;;1.60;;
23617;SDS011;18207;32.078;34.818;2024-02-16T11:13:34;1.40;;;1.30;;
23617;SDS011;18207;32.078;34.818;2024-02-16T11:16:09;1.83;;;1.42;;
23617;SDS011;18207;32.078;34.818;2024-02-16T11:18:41;1.58;;;1.42;;
23617;SDS011;18207;32.078;34.818;2024-02-16T11:21:16;1.30;;;1.20;;
23617;SDS011;18207;32.078;34.818;2024-02-16T11:23:46;1.65;;;1.50;;
23617;SDS011;18207;32.078;34.818;2024-02-16T11:26:25;1.63;;;1.35;;
23617;SDS011;18207;32.078;34.818;2024-02-16T11:28:59;1.42;;;1.33;;
23617;SDS011;18207;32.078;34.818;2024-02-16T11:31:29;1.63;;;1.52;;
23617;SDS011;18207;32.078;34.818;2024-02-16T11:33:59;2.00;;;1.67;;
23617;SDS011;18207;32.078;34.818;2024-02-16T11:36:29;2.50;;;1.58;;
23617;SDS011;18207;32.078;34.818;2024-02-16T11:39:00;1.45;;;1.35;;
23617;SDS011;18207;32.078;34.818;2024-02-16T11:41:31;1.60;;;1.50;;
23617;SDS011;18207;32.078;34.818;2024-02-16T11:44:03;1.17;;;1.08;;
23617;SDS011;18207;32.078;34.818;2024-02-16T11:46:33;1.20;;;1.10;;
23617;SDS011;18207;32.078;34.818;2024-02-16T11:49:06;1.15;;;1.10;;
23617;SDS011;18207;32.078;34.818;2024-02-16T11:51:37;1.25;;;1.10;;
23617;SDS011;18207;32.078;34.818;2024-02-16T11:54:10;0.88;;;0.88;;
23617;SDS011;18207;32.078;34.818;2024-02-16T11:56:48;0.98;;;0.90;;
23617;SDS011;18207;32.078;34.818;2024-02-16T11:59:23;1.20;;;1.10;;
23617;SDS011;18207;32.078;34.818;2024-02-16T12:01:58;1.20;;;0.88;;
23617;SDS011;18207;32.078;34.818;2024-02-16T12:04:30;1.40;;;0.73;;
23617;SDS011;18207;32.078;34.818;2024-02-16T12:07:10;0.68;;;0.68;;
23617;SDS011;18207;32.078;34.818;2024-02-16T12:09:42;0.60;;;0.60;;
23617;SDS011;18207;32.078;34.818;2024-02-16T12:12:23;0.70;;;0.60;;
23617;SDS011;18207;32.078;34.818;2024-02-16T12:14:56;0.60;;;0.57;;
23617;SDS011;18207;32.078;34.818;2024-02-16T12:17:27;0.73;;;0.60;;
23617;SDS011;18207;32.078;34.818;2024-02-16T12:19:57;0.98;;;0.88;;
23617;SDS011;18207;32.078;34.818;2024-02-16T12:22:27;0.50;;;0.50;;
23617;SDS011;18207;32.078;34.818;2024-02-16T12:24:56;0.60;;;0.60;;
23617;SDS011;18207;32.078;34.818;2024-02-16T12:27:29;0.63;;;0.50;;
23617;SDS011;18207;32.078;34.818;2024-02-16T12:30:02;0.88;;;0.60;;
23617;SDS011;18207;32.078;34.818;2024-02-16T12:32:33;0.57;;;0.57;;
23617;SDS011;18207;32.078;34.818;2024-02-16T12:35:04;0.57;;;0.57;;
23617;SDS011;18207;32.078;34.818;2024-02-16T12:37:35;0.22;;;0.22;;
23617;SDS011;18207;32.078;34.818;2024-02-16T12:40:06;0.45;;;0.40;;
23617;SDS011;18207;32.078;34.818;2024-02-16T12:42:37;0.80;;;0.70;;
23617;SDS011;18207;32.078;34.818;2024-02-16T12:45:11;0.80;;;0.80;;
23617;SDS011;18207;32.078;34.818;2024-02-16T12:47:48;0.55;;;0.55;;
23617;SDS011;18207;32.078;34.818;2024-02-16T12:50:26;1.00;;;0.73;;
23617;SDS011;18207;32.078;34.818;2024-02-16T12:52:55;0.77;;;0.50;;
23617;SDS011;18207;32.078;34.818;2024-02-16T12:55:30;1.20;;;0.60;;
23617;SDS011;18207;32.078;34.818;2024-02-16T12:58:03;0.90;;;0.43;;
23617;SDS011;18207;32.078;34.818;2024-02-16T13:00:36;0.90;;;0.55;;
23617;SDS011;18207;32.078;34.818;2024-02-16T13:03:06;0.85;;;0.70;;
23617;SDS011;18207;32.078;34.818;2024-02-16T13:05:40;0.43;;;0.40;;
23617;SDS011;18207;32.078;34.818;2024-02-16T13:08:10;0.50;;;0.40;;
23617;SDS011;18207;32.078;34.818;2024-02-16T13:10:40;0.60;;;0.60;;
23617;SDS011;18207;32.078;34.818;2024-02-16T13:13:11;0.55;;;0.52;;
23617;SDS011;18207;32.078;34.818;2024-02-16T13:15:42;0.93;;;0.70;;
23617;SDS011;18207;32.078;34.818;2024-02-16T13:18:17;1.02;;;0.80;;
23617;SDS011;18207;32.078;34.818;2024-02-16T13:20:58;0.45;;;0.40;;
23617;SDS011;18207;32.078;34.818;2024-02-16T13:23:29;0.52;;;0.52;;
23617;SDS011;18207;32.078;34.818;2024-02-16T13:25:59;0.60;;;0.50;;
23617;SDS011;18207;32.078;34.818;2024-02-16T13:28:31;0.63;;;0.55;;
23617;SDS011;18207;32.078;34.818;2024-02-16T13:31:05;0.60;;;0.60;;
23617;SDS011;18207;32.078;34.818;2024-02-16T13:33:45;1.52;;;0.68;;
23617;SDS011;18207;32.078;34.818;2024-02-16T13:36:15;1.13;;;0.80;;
23617;SDS011;18207;32.078;34.818;2024-02-16T13:38:45;0.45;;;0.30;;
23617;SDS011;18207;32.078;34.818;2024-02-16T13:41:16;1.23;;;0.80;;
23617;SDS011;18207;32.078;34.818;2024-02-16T13:44:01;3.90;;;0.70;;
23617;SDS011;18207;32.078;34.818;2024-02-16T13:46:32;0.85;;;0.68;;
23617;SDS011;18207;32.078;34.818;2024-02-16T13:49:02;0.73;;;0.73;;
23617;SDS011;18207;32.078;34.818;2024-02-16T13:51:32;1.00;;;0.70;;
23617;SDS011;18207;32.078;34.818;2024-02-16T13:54:02;0.93;;;0.82;;
23617;SDS011;18207;32.078;34.818;2024-02-16T13:56:32;0.65;;;0.65;;
23617;SDS011;18207;32.078;34.818;2024-02-16T13:59:04;0.60;;;0.60;;
23617;SDS011;18207;32.078;34.818;2024-02-16T14:01:35;1.02;;;0.80;;
23617;SDS011;18207;32.078;34.818;2024-02-16T14:04:08;0.68;;;0.60;;
23617;SDS011;18207;32.078;34.818;2024-02-16T14:06:48;0.70;;;0.70;;
23617;SDS011;18207;32.078;34.818;2024-02-16T14:09:18;2.75;;;0.75;;
23617;SDS011;18207;32.078;34.818;2024-02-16T14:11:58;0.75;;;0.57;;
23617;SDS011;18207;32.078;34.818;2024-02-16T14:14:28;0.77;;;0.60;;
23617;SDS011;18207;32.078;34.818;2024-02-16T14:17:05;1.13;;;0.68;;
23617;SDS011;18207;32.078;34.818;2024-02-16T14:19:37;0.52;;;0.52;;
23617;SDS011;18207;32.078;34.818;2024-02-16T14:22:08;0.55;;;0.50;;
23617;SDS011;18207;32.078;34.818;2024-02-16T14:24:39;0.98;;;0.85;;
23617;SDS011;18207;32.078;34.818;2024-02-16T14:27:09;1.10;;;0.65;;
23617;SDS011;18207;32.078;34.818;2024-02-16T14:29:39;0.55;;;0.52;;
23617;SDS011;18207;32.078;34.818;2024-02-16T14:32:10;1.08;;;0.63;;
23617;SDS011;18207;32.078;34.818;2024-02-16T14:34:41;0.90;;;0.77;;
23617;SDS011;18207;32.078;34.818;2024-02-16T14:37:11;0.73;;;0.73;;
23617;SDS011;18207;32.078;34.818;2024-02-16T14:39:41;0.50;;;0.50;;
23617;SDS011;18207;32.078;34.818;2024-02-16T14:42:11;0.73;;;0.73;;
23617;SDS011;18207;32.078;34.818;2024-02-16T14:44:41;0.65;;;0.65;;
23617;SDS011;18207;32.078;34.818;2024-02-16T14:47:12;0.35;;;0.35;;
23617;SDS011;18207;32.078;34.818;2024-02-16T14:49:42;0.70;;;0.50;;
23617;SDS011;18207;32.078;34.818;2024-02-16T14:52:12;0.38;;;0.35;;
23617;SDS011;18207;32.078;34.818;2024-02-16T14:54:42;1.15;;;0.70;;
23617;SDS011;18207;32.078;34.818;2024-02-16T14:57:12;3.30;;;0.52;;